Time;durP1;ratioP1;P1;durP2;ratioP2;P2;SDS_P1;SDS_P2;PMS_P1;PMS_P2;Temp;Humidity;BMP_temperature;BMP_pressure;BME280_temperature;BME280_humidity;BME280_pressure;Samples;Min_cycle;Max_cycle;Signal;HPM_P1;HPM_P2
2022/01/19 00:01:28;;;;;;;27.88;16.15;;;2.10;61.50;;;;;;5073403;28;20025;-20
2022/01/19 00:03:55;;;;;;;27.85;17.90;;;2.00;61.60;;;;;;5073594;28;20024;-20
2022/01/19 00:06:21;;;;;;;36.15;22.17;;;2.00;61.70;;;;;;5073317;28;20035;-20
2022/01/19 00:08:47;;;;;;;32.80;20.15;;;2.00;62.80;;;;;;5073492;28;20024;-20
2022/01/19 00:11:17;;;;;;;18.92;11.70;;;1.90;62.60;;;;;;5074113;28;20028;-20
2022/01/19 00:13:44;;;;;;;18.08;10.00;;;1.90;63.00;;;;;;5073078;28;20416;-20
2022/01/19 00:16:10;;;;;;;17.67;10.15;;;1.90;62.30;;;;;;5073525;28;20024;-20
2022/01/19 00:18:37;;;;;;;11.77;7.03;;;1.90;62.00;;;;;;5072925;28;20020;-20
2022/01/19 00:21:03;;;;;;;19.02;11.48;;;1.80;62.00;;;;;;5073135;28;20032;-20
2022/01/19 00:23:30;;;;;;;23.52;14.77;;;1.80;62.00;;;;;;5073098;28;20021;-20
2022/01/19 00:25:56;;;;;;;10.30;6.57;;;1.70;63.20;;;;;;5073073;28;20024;-20
2022/01/19 00:28:24;;;;;;;12.77;7.82;;;1.70;62.40;;;;;;5073087;28;20028;-20
2022/01/19 00:30:50;;;;;;;15.55;8.88;;;1.70;62.20;;;;;;5071848;28;20028;-20
2022/01/19 00:33:19;;;;;;;26.55;15.35;;;1.60;63.10;;;;;;5073184;28;20120;-20
2022/01/19 00:35:46;;;;;;;21.73;12.23;;;1.60;63.40;;;;;;5073008;28;20044;-20
2022/01/19 00:38:13;;;;;;;24.02;13.77;;;1.60;63.70;;;;;;5073315;28;20112;-20
2022/01/19 00:40:40;;;;;;;18.52;11.18;;;1.60;63.30;;;;;;5073018;28;20115;-20
2022/01/19 00:43:07;;;;;;;14.70;8.10;;;1.50;63.50;;;;;;5073149;28;20058;-20
2022/01/19 00:45:34;;;;;;;10.80;6.70;;;1.50;63.10;;;;;;5077310;28;20024;-20
2022/01/19 00:48:00;;;;;;;11.35;6.53;;;1.40;62.80;;;;;;5075827;28;20111;-20
2022/01/19 00:50:29;;;;;;;34.67;20.92;;;1.40;62.70;;;;;;5076414;28;20135;-20
2022/01/19 00:52:56;;;;;;;33.45;20.02;;;1.40;62.80;;;;;;5076938;28;20198;-20
2022/01/19 00:55:24;;;;;;;15.45;8.85;;;1.40;63.40;;;;;;5077550;28;20071;-20
2022/01/19 00:57:51;;;;;;;17.65;8.82;;;1.30;63.60;;;;;;5077331;28;20121;-20
2022/01/19 01:00:21;;;;;;;12.63;6.88;;;1.30;64.00;;;;;;5076629;28;20111;-20
2022/01/19 01:02:48;;;;;;;11.60;6.85;;;1.30;63.40;;;;;;5077075;28;20032;-20
2022/01/19 01:05:17;;;;;;;11.95;6.88;;;1.30;63.30;;;;;;5076754;28;20484;-20
2022/01/19 01:07:43;;;;;;;18.25;9.40;;;1.40;63.10;;;;;;5075468;28;20512;-20
2022/01/19 01:10:12;;;;;;;13.32;7.97;;;1.30;63.30;;;;;;5076672;28;20033;-20
2022/01/19 01:12:45;;;;;;;12.15;7.03;;;1.40;63.40;;;;;;5076249;28;20028;-20
2022/01/19 01:20:29;;;;;;;24.30;13.57;;;1.40;64.10;;;;;;5076622;28;20362;-20
2022/01/19 01:22:55;;;;;;;20.23;12.07;;;1.40;65.10;;;;;;5075210;28;20013;-20
2022/01/19 01:25:21;;;;;;;14.10;7.75;;;1.40;65.00;;;;;;5076351;28;20036;-20
2022/01/19 01:27:47;;;;;;;21.58;11.27;;;1.40;63.80;;;;;;5076598;28;20093;-20
2022/01/19 01:30:13;;;;;;;13.88;7.30;;;1.40;64.00;;;;;;5076318;28;20396;-20
2022/01/19 01:32:39;;;;;;;11.40;6.40;;;1.40;63.50;;;;;;5076089;28;20034;-20
2022/01/19 01:35:05;;;;;;;12.15;7.45;;;1.40;63.10;;;;;;5076615;28;20125;-19
2022/01/19 01:37:31;;;;;;;15.38;9.75;;;1.40;62.90;;;;;;5076119;28;20119;-20
2022/01/19 01:39:58;;;;;;;11.73;6.35;;;1.40;63.20;;;;;;5076100;28;20036;-20
2022/01/19 01:42:25;;;;;;;15.95;8.82;;;1.40;62.90;;;;;;5076140;28;20113;-20
2022/01/19 01:44:53;;;;;;;14.38;7.40;;;1.30;63.60;;;;;;5076797;28;20477;-20
2022/01/19 01:47:20;;;;;;;12.05;6.75;;;1.30;63.10;;;;;;5076774;28;20040;-20
2022/01/19 01:55:10;;;;;;;10.80;5.85;;;1.20;63.20;;;;;;5075877;28;20507;-20
2022/01/19 01:57:36;;;;;;;14.02;8.30;;;1.10;62.90;;;;;;5076300;28;20024;-21
2022/01/19 02:00:05;;;;;;;12.52;7.80;;;1.10;63.00;;;;;;5075682;28;20091;-20
2022/01/19 02:02:31;;;;;;;16.73;8.73;;;1.10;63.90;;;;;;5075475;28;20033;-20
2022/01/19 02:04:57;;;;;;;18.33;9.65;;;1.10;63.60;;;;;;5075683;28;20024;-23
2022/01/19 02:07:40;;;;;;;14.82;7.50;;;1.00;64.10;;;;;;5075869;28;20086;-20
2022/01/19 02:10:15;;;;;;;13.87;8.80;;;1.00;63.70;;;;;;5075903;28;20032;-20
2022/01/19 02:23:46;;;;;;;28.98;16.48;;;0.80;63.80;;;;;;5075919;28;20044;-20
2022/01/19 02:26:19;;;;;;;17.25;9.10;;;0.80;64.70;;;;;;5075632;28;20048;-20
2022/01/19 02:42:43;;;;;;;43.05;24.38;;;0.60;65.00;;;;;;5053187;28;20118;-20
2022/01/19 02:50:31;;;;;;;21.98;13.13;;;0.70;64.60;;;;;;5052418;28;20433;-20
2022/01/19 02:52:57;;;;;;;26.98;15.38;;;0.70;64.30;;;;;;5052560;28;20025;-20
2022/01/19 02:55:23;;;;;;;37.80;22.63;;;0.70;65.10;;;;;;5052578;28;20032;-20
2022/01/19 02:57:50;;;;;;;15.07;8.75;;;0.70;64.40;;;;;;5052734;28;20035;-20
2022/01/19 03:08:44;;;;;;;11.07;6.70;;;0.70;66.80;;;;;;5063405;28;20265;-20
2022/01/19 03:11:12;;;;;;;10.95;6.13;;;0.60;65.40;;;;;;5074914;28;20251;-20
2022/01/19 03:13:39;;;;;;;17.88;9.77;;;0.60;64.50;;;;;;5074437;28;20112;-20
2022/01/19 03:16:05;;;;;;;34.17;19.63;;;0.60;64.70;;;;;;5074427;28;20377;-19
2022/01/19 03:18:31;;;;;;;18.52;10.25;;;0.60;64.80;;;;;;5074596;28;20145;-20
2022/01/19 03:20:57;;;;;;;19.85;11.50;;;0.60;65.10;;;;;;5074271;28;20032;-20
2022/01/19 03:23:23;;;;;;;15.40;9.05;;;0.60;65.40;;;;;;5074721;28;20028;-20
2022/01/19 03:25:50;;;;;;;15.20;7.55;;;0.60;65.00;;;;;;5074030;28;20020;-19
2022/01/19 03:28:17;;;;;;;11.50;6.82;;;0.50;64.50;;;;;;5074275;28;20380;-20
2022/01/19 03:30:45;;;;;;;52.13;30.60;;;0.50;64.40;;;;;;5074307;28;20168;-20
2022/01/19 03:33:11;;;;;;;18.88;9.23;;;0.50;66.60;;;;;;5074427;28;20059;-20
2022/01/19 03:35:38;;;;;;;13.25;7.35;;;0.40;65.80;;;;;;5073864;28;20040;-20
2022/01/19 03:38:08;;;;;;;10.98;6.22;;;0.40;65.20;;;;;;5074121;28;20473;-20
2022/01/19 03:40:35;;;;;;;13.50;7.25;;;0.40;64.70;;;;;;5073551;28;20547;-20
2022/01/19 03:43:05;;;;;;;11.50;6.03;;;0.40;64.60;;;;;;5073964;28;20020;-19
2022/01/19 03:45:33;;;;;;;25.83;17.40;;;0.40;64.40;;;;;;5073742;28;20078;-19
2022/01/19 03:50:40;;;;;;;15.07;8.38;;;0.30;65.70;;;;;;5073450;28;20385;-19
2022/01/19 03:53:06;;;;;;;11.15;6.40;;;0.30;65.20;;;;;;5073397;28;20537;-20
2022/01/19 03:55:32;;;;;;;13.02;7.22;;;0.30;64.90;;;;;;5073688;28;20024;-19
2022/01/19 03:57:58;;;;;;;24.05;14.82;;;0.30;64.70;;;;;;5073595;28;20021;-19
2022/01/19 04:00:24;;;;;;;11.88;6.55;;;0.30;66.60;;;;;;5073260;28;20466;-20
2022/01/19 04:02:50;;;;;;;14.05;8.40;;;0.30;65.20;;;;;;5072241;28;20025;-20
2022/01/19 04:05:38;;;;;;;33.42;18.55;;;0.30;65.00;;;;;;5073660;28;20028;-21
2022/01/19 04:08:03;;;;;;;20.95;13.48;;;0.30;65.50;;;;;;5073244;28;20388;-19
2022/01/19 04:10:29;;;;;;;19.80;10.18;;;0.40;65.60;;;;;;5071841;28;20028;-20
2022/01/19 04:13:08;;;;;;;26.08;14.07;;;0.40;65.30;;;;;;5073399;28;20037;-20
2022/01/19 04:15:36;;;;;;;15.95;9.40;;;0.40;65.00;;;;;;5073487;28;20500;-20
2022/01/19 04:18:03;;;;;;;12.13;6.53;;;0.40;65.50;;;;;;5073512;28;20033;-20
2022/01/19 04:20:29;;;;;;;13.05;8.20;;;0.40;65.10;;;;;;5073234;28;20393;-20
2022/01/19 04:22:55;;;;;;;15.50;8.13;;;0.40;64.80;;;;;;5073163;28;20048;-20
2022/01/19 04:25:21;;;;;;;12.55;7.40;;;0.40;65.20;;;;;;5073171;28;20059;-20
2022/01/19 04:27:47;;;;;;;19.02;11.70;;;0.30;65.00;;;;;;5073041;28;20031;-21
2022/01/19 04:30:14;;;;;;;17.10;9.73;;;0.30;65.40;;;;;;5072899;28;20021;-21
2022/01/19 04:32:51;;;;;;;19.02;10.05;;;0.30;65.50;;;;;;5072988;28;20366;-20
2022/01/19 04:35:23;;;;;;;11.75;6.18;;;0.30;65.30;;;;;;5073073;28;20476;-20
2022/01/19 05:02:24;;;;;;;13.32;6.70;;;0.00;65.10;;;;;;5073160;28;20558;-20
2022/01/19 05:05:03;;;;;;;15.15;9.05;;;0.00;64.90;;;;;;5072746;28;20032;-20
2022/01/19 05:07:37;;;;;;;27.52;16.65;;;0.00;64.90;;;;;;5073534;28;20038;-20
2022/01/19 05:15:34;;;;;;;14.40;7.93;;;-0.10;68.60;;;;;;5073337;28;20142;-21
2022/01/19 05:18:02;;;;;;;14.63;7.82;;;-0.10;67.10;;;;;;5072984;28;20056;-20
2022/01/19 05:20:28;;;;;;;12.48;7.00;;;-0.10;66.50;;;;;;5072693;28;20020;-20
2022/01/19 05:22:54;;;;;;;32.97;17.20;;;-0.10;66.50;;;;;;5072923;28;20028;-20
2022/01/19 05:25:20;;;;;;;18.30;10.70;;;0.00;66.90;;;;;;5072515;28;20473;-20
2022/01/19 05:27:46;;;;;;;25.70;12.68;;;0.00;66.40;;;;;;5072824;28;20108;-20
2022/01/19 05:30:13;;;;;;;15.45;8.20;;;0.00;66.30;;;;;;5074012;28;20028;-19
2022/01/19 05:32:38;;;;;;;17.73;9.25;;;0.00;66.10;;;;;;5076123;28;20025;-19
2022/01/19 05:35:05;;;;;;;16.42;9.35;;;0.00;66.90;;;;;;5076507;28;20031;-20
2022/01/19 05:37:36;;;;;;;20.63;11.02;;;0.00;66.20;;;;;;5076192;28;20025;-19
2022/01/19 05:40:07;;;;;;;11.88;6.28;;;0.00;66.40;;;;;;5076484;28;20078;-19
2022/01/19 05:42:34;;;;;;;11.00;5.72;;;0.00;65.90;;;;;;5075915;28;20542;-19
2022/01/19 05:45:01;;;;;;;10.50;5.32;;;0.00;65.40;;;;;;5075982;28;20024;-19
2022/01/19 05:47:27;;;;;;;21.15;12.32;;;0.00;65.20;;;;;;5076398;28;20388;-19
2022/01/19 05:49:53;;;;;;;19.25;11.35;;;0.00;65.30;;;;;;5075822;28;20051;-19
2022/01/19 05:52:22;;;;;;;10.20;5.25;;;0.00;65.80;;;;;;5075960;28;20033;-20
2022/01/19 05:54:48;;;;;;;9.50;5.88;;;0.00;65.50;;;;;;5075809;28;20601;-19
2022/01/19 05:57:14;;;;;;;11.98;6.45;;;0.00;65.10;;;;;;5076019;28;20027;-19
2022/01/19 05:59:41;;;;;;;12.43;6.43;;;0.00;65.10;;;;;;5076002;28;20028;-19
2022/01/19 06:02:07;;;;;;;14.25;6.65;;;0.00;65.00;;;;;;5075706;28;20503;-19
2022/01/19 06:04:32;;;;;;;21.70;13.48;;;0.00;65.20;;;;;;5074295;28;20028;-20
2022/01/19 06:07:01;;;;;;;10.82;5.90;;;-0.10;65.90;;;;;;5075620;28;20029;-20
2022/01/19 06:09:49;;;;;;;10.80;5.55;;;-0.10;65.70;;;;;;5075918;28;20077;-19
2022/01/19 06:12:16;;;;;;;13.20;6.65;;;-0.10;65.30;;;;;;5075321;28;20040;-21
2022/01/19 06:14:43;;;;;;;9.23;5.00;;;-0.10;65.30;;;;;;5075677;28;20077;-19
2022/01/19 06:17:12;;;;;;;7.75;4.68;;;-0.20;65.10;;;;;;5076050;28;20049;-19
2022/01/19 06:19:39;;;;;;;20.77;9.98;;;-0.20;65.00;;;;;;5075348;28;20082;-19
2022/01/19 06:22:06;;;;;;;17.48;8.80;;;-0.30;65.10;;;;;;5075301;28;20112;-19
2022/01/19 06:24:32;;;;;;;14.68;8.27;;;-0.30;65.70;;;;;;5075406;28;20052;-19
2022/01/19 06:26:57;;;;;;;20.77;11.60;;;-0.30;65.50;;;;;;5075553;28;20448;-20
2022/01/19 06:29:24;;;;;;;13.73;6.80;;;-0.40;67.00;;;;;;5075301;28;20025;-19
2022/01/19 06:31:50;;;;;;;17.58;10.93;;;-0.40;66.20;;;;;;5075094;28;20035;-19
2022/01/19 06:34:17;;;;;;;20.58;12.70;;;-0.40;66.00;;;;;;5074930;28;20040;-19
2022/01/19 06:36:43;;;;;;;11.88;5.50;;;-0.40;66.30;;;;;;5075076;28;20397;-19
2022/01/19 06:39:09;;;;;;;9.00;4.70;;;-0.40;66.30;;;;;;5057120;28;20032;-19
2022/01/19 06:41:35;;;;;;;7.60;4.20;;;-0.40;65.90;;;;;;5073926;28;20016;-19
2022/01/19 06:44:01;;;;;;;16.73;6.80;;;-0.30;65.70;;;;;;5074862;28;20494;-19
2022/01/19 06:46:27;;;;;;;14.32;6.20;;;-0.30;65.90;;;;;;5074968;28;20052;-20
2022/01/19 06:48:53;;;;;;;10.32;5.28;;;-0.30;65.70;;;;;;5074819;28;20032;-19
2022/01/19 06:51:19;;;;;;;16.83;10.45;;;-0.30;65.50;;;;;;5075425;28;20047;-19
2022/01/19 06:53:45;;;;;;;20.67;10.23;;;-0.30;66.10;;;;;;5074664;28;20032;-20
2022/01/19 06:56:10;;;;;;;39.35;21.63;;;-0.30;67.70;;;;;;5075333;28;20032;-20
2022/01/19 06:58:36;;;;;;;30.08;15.50;;;-0.30;68.80;;;;;;5074309;28;20068;-20
2022/01/19 07:01:03;;;;;;;19.30;9.23;;;-0.30;68.40;;;;;;5074610;28;20025;-19
2022/01/19 07:03:28;;;;;;;45.28;21.02;;;-0.30;67.80;;;;;;5074523;28;20070;-19
2022/01/19 07:05:56;;;;;;;13.77;7.65;;;-0.30;68.50;;;;;;5074491;28;20078;-19
2022/01/19 07:08:22;;;;;;;38.25;19.83;;;-0.30;67.40;;;;;;5074257;28;20046;-19
2022/01/19 07:10:48;;;;;;;20.55;11.10;;;-0.30;70.20;;;;;;5073208;28;20025;-19
2022/01/19 07:13:13;;;;;;;26.45;12.93;;;-0.30;70.00;;;;;;5074467;28;20029;-19
2022/01/19 07:15:40;;;;;;;21.27;11.50;;;-0.30;69.20;;;;;;5074255;28;20476;-20
2022/01/19 07:18:06;;;;;;;17.98;9.75;;;-0.20;68.20;;;;;;5074510;28;20032;-19
2022/01/19 07:20:33;;;;;;;12.27;6.10;;;-0.20;67.90;;;;;;5072777;28;20499;-19
2022/01/19 07:23:01;;;;;;;12.27;6.95;;;-0.20;68.10;;;;;;5074130;28;20056;-19
2022/01/19 07:25:29;;;;;;;9.73;5.15;;;-0.10;68.10;;;;;;5074062;28;20040;-19
2022/01/19 07:27:56;;;;;;;26.30;15.05;;;0.00;67.10;;;;;;5074170;28;20040;-19
2022/01/19 07:30:22;;;;;;;26.52;12.85;;;0.00;67.30;;;;;;5074078;28;20031;-19
2022/01/19 07:32:50;;;;;;;17.38;7.50;;;0.00;68.10;;;;;;5073903;28;20032;-19
2022/01/19 07:35:16;;;;;;;14.43;8.10;;;0.20;67.50;;;;;;5073852;28;20484;-19
2022/01/19 07:37:42;;;;;;;12.40;7.40;;;0.20;67.00;;;;;;5073880;28;20400;-19
2022/01/19 07:40:09;;;;;;;16.70;9.52;;;0.30;66.70;;;;;;5074060;28;20098;-18
2022/01/19 07:42:36;;;;;;;27.05;16.20;;;0.40;67.50;;;;;;5073839;28;20074;-19
2022/01/19 07:45:02;;;;;;;19.15;10.52;;;0.50;67.60;;;;;;5073633;28;20472;-19
2022/01/19 07:47:28;;;;;;;13.48;7.10;;;0.60;69.50;;;;;;5073734;28;20024;-21
2022/01/19 07:49:57;;;;;;;14.80;6.88;;;0.80;67.50;;;;;;5073450;28;20071;-19
2022/01/19 07:52:25;;;;;;;10.63;6.00;;;0.90;66.90;;;;;;5073052;28;20051;-19
2022/01/19 07:54:52;;;;;;;24.20;13.77;;;0.90;66.40;;;;;;5073535;28;20066;-19
2022/01/19 07:57:18;;;;;;;26.50;13.77;;;1.00;66.90;;;;;;5073865;28;20048;-19
2022/01/19 07:59:45;;;;;;;16.40;9.23;;;1.10;66.50;;;;;;5073401;28;20059;-19
2022/01/19 08:02:13;;;;;;;21.23;10.95;;;1.20;67.20;;;;;;5073752;28;20120;-19
2022/01/19 08:04:40;;;;;;;12.73;6.25;;;1.20;67.70;;;;;;5073673;28;20021;-19
2022/01/19 08:07:06;;;;;;;11.98;6.28;;;1.40;66.20;;;;;;5073355;28;20090;-19
2022/01/19 08:09:33;;;;;;;13.73;6.90;;;1.40;65.90;;;;;;5073334;28;20024;-19
2022/01/19 08:11:59;;;;;;;39.03;22.05;;;1.50;66.20;;;;;;5073234;28;20472;-19
2022/01/19 08:14:25;;;;;;;44.70;24.38;;;1.60;67.60;;;;;;5073616;28;20074;-20
2022/01/19 08:16:55;;;;;;;23.25;11.15;;;1.70;69.10;;;;;;5073268;28;20408;-20
2022/01/19 08:19:22;;;;;;;24.98;15.07;;;1.80;67.90;;;;;;5073309;28;20071;-19
2022/01/19 08:21:48;;;;;;;41.03;21.73;;;1.90;68.60;;;;;;5073489;28;20024;-19
2022/01/19 08:24:15;;;;;;;50.53;25.92;;;2.10;69.60;;;;;;5072966;28;20039;-19
2022/01/19 08:26:41;;;;;;;39.25;20.42;;;2.20;70.30;;;;;;5073444;28;20058;-20
2022/01/19 08:29:09;;;;;;;23.45;12.30;;;2.30;69.70;;;;;;5072967;28;20032;-20
2022/01/19 08:31:35;;;;;;;31.77;17.77;;;2.50;68.30;;;;;;5073113;28;20032;-20
2022/01/19 08:34:02;;;;;;;38.97;22.40;;;2.60;68.80;;;;;;5072961;28;20499;-19
2022/01/19 08:36:28;;;;;;;31.85;17.33;;;2.80;69.40;;;;;;5072835;28;20021;-19
2022/01/19 08:38:55;;;;;;;31.17;17.95;;;2.90;68.60;;;;;;5073279;28;20107;-20
2022/01/19 08:41:22;;;;;;;37.83;21.30;;;3.10;68.30;;;;;;5073118;28;20029;-19
2022/01/19 08:43:48;;;;;;;29.33;15.20;;;3.30;68.50;;;;;;5072930;28;20504;-20
2022/01/19 08:46:15;;;;;;;16.63;9.30;;;3.40;68.00;;;;;;5073053;28;20100;-21
2022/01/19 08:48:42;;;;;;;38.15;20.73;;;3.60;65.90;;;;;;5068528;28;20491;-22
2022/01/19 08:51:08;;;;;;;28.60;14.75;;;3.80;66.90;;;;;;5072966;28;20038;-20
2022/01/19 08:53:34;;;;;;;25.67;13.65;;;4.00;66.00;;;;;;5072801;28;20021;-21
2022/01/19 08:56:00;;;;;;;34.72;18.80;;;4.30;65.40;;;;;;5073195;28;20021;-20
2022/01/19 08:58:26;;;;;;;44.88;25.90;;;4.50;64.90;;;;;;5072686;28;20127;-21
2022/01/19 09:00:53;;;;;;;26.60;16.90;;;4.80;65.40;;;;;;5071618;28;20069;-21
2022/01/19 09:03:19;;;;;;;46.17;24.15;;;5.00;64.40;;;;;;5073105;28;20107;-21
2022/01/19 09:05:46;;;;;;;31.98;18.73;;;5.30;64.30;;;;;;5075543;28;20048;-21
2022/01/19 09:08:12;;;;;;;19.77;11.30;;;5.60;63.90;;;;;;5076828;28;20389;-21
2022/01/19 09:10:40;;;;;;;26.98;16.25;;;5.90;62.80;;;;;;5076611;28;20473;-23
2022/01/19 09:13:09;;;;;;;34.78;19.67;;;6.10;62.50;;;;;;5076580;28;20036;-21
2022/01/19 09:15:35;;;;;;;54.00;30.23;;;6.40;61.90;;;;;;5077045;28;20480;-21
2022/01/19 09:18:02;;;;;;;46.80;29.88;;;6.70;62.00;;;;;;5075339;28;20035;-21
2022/01/19 09:20:28;;;;;;;28.85;14.90;;;6.90;61.40;;;;;;5076347;28;20107;-21
2022/01/19 09:22:54;;;;;;;26.40;15.00;;;7.10;60.40;;;;;;5076398;28;20116;-21
2022/01/19 09:25:20;;;;;;;24.02;14.07;;;7.40;60.10;;;;;;5076465;28;20024;-21
2022/01/19 09:27:46;;;;;;;25.73;15.90;;;7.60;59.70;;;;;;5076387;28;20075;-21
2022/01/19 09:30:16;;;;;;;23.60;13.05;;;7.90;59.30;;;;;;5076399;28;20048;-21
2022/01/19 09:32:54;;;;;;;16.83;10.95;;;8.10;59.00;;;;;;5076204;28;20029;-21
2022/01/19 09:35:24;;;;;;;16.23;10.23;;;8.40;58.40;;;;;;5076959;28;20081;-21
2022/01/19 09:37:52;;;;;;;16.98;10.82;;;8.60;58.30;;;;;;5076196;28;20040;-21
2022/01/19 09:40:18;;;;;;;24.73;15.68;;;8.90;57.80;;;;;;5074657;28;20021;-21
2022/01/19 09:42:45;;;;;;;22.80;13.95;;;9.20;57.60;;;;;;5076089;28;20020;-21
2022/01/19 09:45:12;;;;;;;17.50;11.07;;;9.50;56.80;;;;;;5076221;28;20078;-21
2022/01/19 09:47:38;;;;;;;33.20;22.67;;;9.70;56.70;;;;;;5076297;28;20033;-21
2022/01/19 09:50:05;;;;;;;22.70;14.07;;;9.90;55.00;;;;;;5075792;28;20135;-21
2022/01/19 09:52:32;;;;;;;20.42;11.80;;;10.10;55.50;;;;;;5075630;28;20025;-21
2022/01/19 09:54:58;;;;;;;14.15;8.90;;;10.30;55.50;;;;;;5075889;28;20029;-21
2022/01/19 09:57:24;;;;;;;15.95;9.50;;;10.40;55.60;;;;;;5076106;28;20031;-21
2022/01/19 09:59:49;;;;;;;14.27;8.93;;;10.70;55.40;;;;;;5075848;28;20055;-21
2022/01/19 10:02:16;;;;;;;37.30;21.08;;;10.90;55.30;;;;;;5075449;28;20020;-21
2022/01/19 10:04:46;;;;;;;23.83;13.20;;;11.10;54.40;;;;;;5075916;28;20425;-21
2022/01/19 10:07:26;;;;;;;22.15;13.57;;;11.20;53.60;;;;;;5074445;28;20116;-21
2022/01/19 10:10:01;;;;;;;24.55;16.10;;;11.30;53.50;;;;;;5075961;28;20033;-21
2022/01/19 10:18:21;;;;;;;15.77;9.52;;;11.70;53.60;;;;;;5075801;28;20044;-20
2022/01/19 10:21:17;;;;;;;14.15;8.85;;;11.90;53.80;;;;;;5075700;28;20040;-21
2022/01/19 10:23:48;;;;;;;16.88;11.45;;;12.10;54.10;;;;;;5075716;28;20024;-21
2022/01/19 10:26:24;;;;;;;16.30;10.32;;;12.30;54.00;;;;;;5075130;28;20020;-21
2022/01/19 10:28:59;;;;;;;16.20;10.43;;;12.50;53.50;;;;;;5075206;28;20100;-21
2022/01/19 10:31:26;;;;;;;16.25;10.25;;;12.70;53.70;;;;;;5074099;28;20035;-20
2022/01/19 10:34:11;;;;;;;18.27;11.70;;;12.90;53.70;;;;;;5075019;28;20112;-20
2022/01/19 10:37:05;;;;;;;18.77;12.88;;;13.10;53.60;;;;;;5074838;28;20047;-21
2022/01/19 10:39:49;;;;;;;17.88;12.95;;;13.40;53.50;;;;;;5075321;28;20515;-21
2022/01/19 10:42:23;;;;;;;18.10;12.55;;;13.70;53.20;;;;;;5074789;28;20407;-21
2022/01/19 10:44:56;;;;;;;15.18;9.25;;;14.00;52.80;;;;;;5075168;28;20476;-20
2022/01/19 10:47:56;;;;;;;17.30;11.00;;;14.30;52.70;;;;;;5074970;28;20435;-21
2022/01/19 10:50:33;;;;;;;21.20;14.27;;;14.60;52.10;;;;;;5074413;28;20507;-20
2022/01/19 10:53:04;;;;;;;18.65;12.20;;;14.90;50.30;;;;;;5075037;28;20186;-21
2022/01/19 10:55:33;;;;;;;20.17;13.75;;;15.20;50.20;;;;;;5075053;28;20051;-21
2022/01/19 10:58:01;;;;;;;20.38;14.13;;;15.30;49.70;;;;;;5074955;28;20075;-20
2022/01/19 11:00:36;;;;;;;18.52;12.15;;;15.40;50.30;;;;;;5074397;28;20400;-21
2022/01/19 11:03:24;;;;;;;22.17;13.10;;;15.60;50.30;;;;;;5074514;28;20067;-20
2022/01/19 11:05:58;;;;;;;18.85;13.13;;;15.70;49.30;;;;;;5074442;28;20024;-21
2022/01/19 11:08:29;;;;;;;16.17;9.55;;;15.80;49.60;;;;;;5074628;28;20040;-21
2022/01/19 11:11:01;;;;;;;20.08;13.65;;;15.90;49.90;;;;;;5074507;28;20028;-21
2022/01/19 11:13:38;;;;;;;15.43;10.48;;;15.90;49.70;;;;;;5074270;28;20133;-21
2022/01/19 11:16:04;;;;;;;19.80;13.40;;;16.10;49.80;;;;;;5074317;28;20040;-21
2022/01/19 11:18:32;;;;;;;23.05;16.40;;;16.30;48.40;;;;;;5074291;28;20021;-20
2022/01/19 11:21:05;;;;;;;18.70;13.68;;;16.40;48.80;;;;;;5074626;28;20028;-21
2022/01/19 11:23:42;;;;;;;21.60;15.60;;;16.60;48.70;;;;;;5074233;28;20024;-21
2022/01/19 11:26:16;;;;;;;17.67;11.98;;;16.80;47.40;;;;;;5074349;28;20082;-21
2022/01/19 11:28:49;;;;;;;12.45;8.40;;;16.90;47.40;;;;;;5073970;28;20024;-21
2022/01/19 11:31:38;;;;;;;12.15;8.23;;;17.20;47.80;;;;;;5074106;28;20476;-20
2022/01/19 11:34:05;;;;;;;23.98;17.75;;;17.50;44.80;;;;;;5074227;28;20039;-20
2022/01/19 11:36:39;;;;;;;15.38;10.55;;;17.90;46.00;;;;;;5073998;28;20024;-20
2022/01/19 11:39:20;;;;;;;18.48;11.68;;;18.10;45.60;;;;;;5073882;28;20017;-21
2022/01/19 11:41:54;;;;;;;19.23;13.15;;;18.40;44.80;;;;;;5073823;28;20032;-21
2022/01/19 11:44:31;;;;;;;19.08;14.60;;;18.80;44.60;;;;;;5073485;28;20477;-20
2022/01/19 11:47:16;;;;;;;24.45;19.23;;;19.10;43.70;;;;;;5074164;28;20032;-20
2022/01/19 11:49:50;;;;;;;30.17;21.17;;;19.40;43.20;;;;;;5073425;28;20048;-20
2022/01/19 11:52:19;;;;;;;22.92;15.20;;;19.60;41.80;;;;;;5073457;28;20025;-21
2022/01/19 11:54:47;;;;;;;23.98;17.85;;;19.80;42.20;;;;;;5073871;28;20036;-21
2022/01/19 11:57:33;;;;;;;27.40;18.70;;;20.00;41.70;;;;;;5073522;28;20048;-21
2022/01/19 12:00:09;;;;;;;27.67;19.40;;;20.20;38.90;;;;;;5073427;28;20025;-21
2022/01/19 12:02:39;;;;;;;21.42;16.38;;;20.40;40.10;;;;;;5073375;28;20090;-21
2022/01/19 12:05:07;;;;;;;20.40;14.40;;;20.60;40.90;;;;;;5073501;28;20024;-21
2022/01/19 12:07:48;;;;;;;18.98;13.57;;;20.90;40.90;;;;;;5073395;28;20480;-20
2022/01/19 12:10:22;;;;;;;15.48;12.05;;;21.20;40.30;;;;;;5073521;28;20048;-20
2022/01/19 12:16:11;;;;;;;18.83;13.32;;;21.70;36.50;;;;;;5073099;28;20025;-21
2022/01/19 12:19:02;;;;;;;25.43;18.47;;;21.90;39.10;;;;;;5073166;28;20032;-21
2022/01/19 12:21:34;;;;;;;17.02;12.95;;;22.10;36.80;;;;;;5073554;28;20033;-21
2022/01/19 12:24:25;;;;;;;21.08;14.77;;;22.20;38.50;;;;;;5073150;28;20032;-21
2022/01/19 12:26:57;;;;;;;28.65;19.73;;;22.40;36.40;;;;;;5073211;28;20477;-21
2022/01/19 12:29:38;;;;;;;19.83;15.65;;;22.50;35.10;;;;;;5073627;28;20150;-21
2022/01/19 12:32:05;;;;;;;25.63;19.85;;;22.50;37.20;;;;;;5073910;28;20033;-20
2022/01/19 12:34:44;;;;;;;26.63;19.35;;;22.60;37.00;;;;;;5073246;28;20028;-21
2022/01/19 12:37:31;;;;;;;29.83;22.67;;;22.50;34.30;;;;;;5073331;28;20024;-21
2022/01/19 12:39:59;;;;;;;17.35;12.55;;;22.70;37.30;;;;;;5071993;28;20116;-21
2022/01/19 12:42:40;;;;;;;23.38;18.02;;;22.80;37.50;;;;;;5072853;28;20016;-21
2022/01/19 12:45:28;;;;;;;22.73;17.75;;;22.90;37.30;;;;;;5073294;28;20028;-21
2022/01/19 12:47:56;;;;;;;20.10;16.38;;;22.80;34.20;;;;;;5073041;28;20021;-21
2022/01/19 12:50:28;;;;;;;17.65;13.85;;;22.60;37.10;;;;;;5072091;28;20037;-20
2022/01/19 12:52:57;;;;;;;21.95;15.90;;;22.40;37.60;;;;;;5073145;28;20089;-21
2022/01/19 12:55:28;;;;;;;20.60;14.82;;;22.00;37.60;;;;;;5072893;28;20020;-21
2022/01/19 12:57:57;;;;;;;21.23;16.48;;;21.70;38.20;;;;;;5072838;28;20070;-21
2022/01/19 13:00:30;;;;;;;23.52;19.08;;;21.60;37.90;;;;;;5072497;28;20032;-21
2022/01/19 13:02:59;;;;;;;16.52;13.65;;;21.70;37.90;;;;;;5072844;28;20401;-21
2022/01/19 13:05:31;;;;;;;16.80;12.55;;;21.70;38.20;;;;;;5072783;28;20071;-21
2022/01/19 13:08:02;;;;;;;13.63;10.45;;;21.80;38.00;;;;;;5073096;28;20032;-21
2022/01/19 13:10:46;;;;;;;18.38;14.57;;;22.00;38.20;;;;;;5072889;28;20027;-21
2022/01/19 13:13:19;;;;;;;;;;;22.10;37.60;;;;;;5073642;28;20032;-21
2022/01/19 13:15:52;;;;;;;21.95;16.75;;;22.20;34.90;;;;;;5072905;28;19987;-21
2022/01/19 13:18:42;;;;;;;19.92;14.75;;;22.10;37.40;;;;;;5072523;28;20032;-21
2022/01/19 13:21:17;;;;;;;22.95;16.30;;;21.90;37.20;;;;;;5072649;28;20518;-21
2022/01/19 13:24:08;;;;;;;19.88;15.63;;;21.70;38.00;;;;;;5072962;28;20039;-21
2022/01/19 13:26:40;;;;;;;20.45;16.35;;;21.50;38.00;;;;;;5072727;28;20043;-21
2022/01/19 13:29:26;;;;;;;23.35;17.42;;;21.40;36.80;;;;;;5072877;28;20021;-21
2022/01/19 13:32:08;;;;;;;18.35;14.93;;;21.40;37.30;;;;;;5072925;28;20079;-21
2022/01/19 13:34:51;;;;;;;15.10;11.40;;;21.30;38.50;;;;;;5072464;28;20043;-21
2022/01/19 13:37:17;;;;;;;;;;;21.40;37.90;;;;;;5073299;28;20032;-21
2022/01/19 13:39:43;;;;;;;19.60;14.48;;;21.70;35.50;;;;;;5072740;28;19905;-21
2022/01/19 13:42:09;;;;;;;13.10;9.23;;;22.00;38.00;;;;;;5072396;28;20476;-21
2022/01/19 13:44:47;;;;;;;15.25;11.20;;;22.20;38.00;;;;;;5072482;28;20025;-21
2022/01/19 13:47:27;;;;;;;26.60;19.67;;;22.40;37.40;;;;;;5072424;28;20100;-21
2022/01/19 13:49:54;;;;;;;21.95;17.40;;;22.40;36.20;;;;;;5072150;28;20063;-21
2022/01/19 13:52:24;;;;;;;24.52;17.92;;;22.50;36.50;;;;;;5075482;28;20028;-21
2022/01/19 13:54:51;;;;;;;18.13;12.82;;;22.40;36.30;;;;;;5075926;28;20062;-21
2022/01/19 13:57:30;;;;;;;19.35;14.80;;;22.40;36.60;;;;;;5075776;28;20426;-21
2022/01/19 14:00:11;;;;;;;23.00;17.08;;;22.40;34.30;;;;;;5075713;28;20025;-21
2022/01/19 14:02:38;;;;;;;15.40;11.43;;;22.30;35.60;;;;;;5075784;28;20033;-21
2022/01/19 14:05:05;;;;;;;15.30;11.18;;;22.30;36.60;;;;;;5075718;28;20024;-21
2022/01/19 14:07:31;;;;;;;18.23;12.10;;;22.40;36.60;;;;;;5075502;28;20117;-21
2022/01/19 14:10:08;;;;;;;26.15;19.50;;;22.40;36.70;;;;;;5075968;28;20174;-21
2022/01/19 14:12:34;;;;;;;29.13;21.60;;;22.40;35.00;;;;;;5075786;28;20116;-20
2022/01/19 14:15:02;;;;;;;19.55;13.90;;;22.40;35.80;;;;;;5075727;28;20154;-21
2022/01/19 14:17:40;;;;;;;23.27;17.42;;;22.20;36.30;;;;;;5075392;28;20051;-21
2022/01/19 14:20:16;;;;;;;15.23;12.07;;;22.20;35.90;;;;;;5076209;28;20024;-20